Terminal Aerodrome Forecast
Issued by NWS Kansas City/Pleasant Hill, MO

Home | Current Version | Previous Version | Text Only | Print | Product List | Glossary On
Versions: 1 2 3 4 5 6 7 8 9 10 11 12
986
FTUS43 KEAX 061736
TAFMCI
TAF
KMCI 061736Z 0618/0718 26007KT P6SM SKC
     FM062300 21009KT P6SM SCT200
     FM071500 27013G22KT P6SM BKN100=

USA.gov is the U.S. government's official web portal to all federal, state and local government web resources and services.